sensor_id;sensor_type;location;lat;lon;timestamp;temperature;humidity
33007;DHT22;19361;51.598;7.650;2024-02-14T00:00:44;11.00;64.10
33007;DHT22;19361;51.598;7.650;2024-02-14T00:05:45;11.00;64.10
33007;DHT22;19361;51.598;7.650;2024-02-14T00:10:46;11.10;64.30
33007;DHT22;19361;51.598;7.650;2024-02-14T00:15:47;11.10;64.50
33007;DHT22;19361;51.598;7.650;2024-02-14T00:20:47;11.10;64.60
33007;DHT22;19361;51.598;7.650;2024-02-14T00:25:48;11.10;64.60
33007;DHT22;19361;51.598;7.650;2024-02-14T00:30:49;11.10;64.70
33007;DHT22;19361;51.598;7.650;2024-02-14T00:35:49;11.20;65.00
33007;DHT22;19361;51.598;7.650;2024-02-14T00:40:50;11.10;64.90
33007;DHT22;19361;51.598;7.650;2024-02-14T00:45:51;11.10;65.10
33007;DHT22;19361;51.598;7.650;2024-02-14T00:50:51;11.10;65.30
33007;DHT22;19361;51.598;7.650;2024-02-14T00:55:52;11.10;65.40
33007;DHT22;19361;51.598;7.650;2024-02-14T01:00:53;11.10;65.40
33007;DHT22;19361;51.598;7.650;2024-02-14T01:05:53;11.10;65.50
33007;DHT22;19361;51.598;7.650;2024-02-14T01:10:55;11.10;65.70
33007;DHT22;19361;51.598;7.650;2024-02-14T01:15:55;11.10;65.90
33007;DHT22;19361;51.598;7.650;2024-02-14T01:20:57;11.10;65.90
33007;DHT22;19361;51.598;7.650;2024-02-14T01:25:59;11.10;66.00
33007;DHT22;19361;51.598;7.650;2024-02-14T01:30:59;11.10;66.00
33007;DHT22;19361;51.598;7.650;2024-02-14T01:36:00;11.10;66.00
33007;DHT22;19361;51.598;7.650;2024-02-14T01:41:02;11.00;66.10
33007;DHT22;19361;51.598;7.650;2024-02-14T01:46:07;11.00;66.00
33007;DHT22;19361;51.598;7.650;2024-02-14T01:51:09;11.10;66.20
33007;DHT22;19361;51.598;7.650;2024-02-14T01:56:12;11.10;66.20
33007;DHT22;19361;51.598;7.650;2024-02-14T02:01:12;11.00;66.10
33007;DHT22;19361;51.598;7.650;2024-02-14T02:06:13;11.10;66.50
33007;DHT22;19361;51.598;7.650;2024-02-14T02:11:15;11.10;66.30
33007;DHT22;19361;51.598;7.650;2024-02-14T02:16:15;11.10;66.30
33007;DHT22;19361;51.598;7.650;2024-02-14T02:21:16;11.10;66.40
33007;DHT22;19361;51.598;7.650;2024-02-14T02:26:19;11.10;66.40
33007;DHT22;19361;51.598;7.650;2024-02-14T02:31:20;11.10;66.80
33007;DHT22;19361;51.598;7.650;2024-02-14T02:36:21;11.10;66.90
33007;DHT22;19361;51.598;7.650;2024-02-14T02:41:24;11.10;67.00
33007;DHT22;19361;51.598;7.650;2024-02-14T02:46:25;11.10;67.10
33007;DHT22;19361;51.598;7.650;2024-02-14T02:51:26;11.20;67.10
33007;DHT22;19361;51.598;7.650;2024-02-14T02:56:28;11.20;67.30
33007;DHT22;19361;51.598;7.650;2024-02-14T03:01:35;11.20;67.30
33007;DHT22;19361;51.598;7.650;2024-02-14T03:06:36;11.20;67.80
33007;DHT22;19361;51.598;7.650;2024-02-14T03:11:37;11.20;67.70
33007;DHT22;19361;51.598;7.650;2024-02-14T03:16:38;11.20;67.90
33007;DHT22;19361;51.598;7.650;2024-02-14T03:21:39;11.20;68.40
33007;DHT22;19361;51.598;7.650;2024-02-14T03:26:39;11.30;68.50
33007;DHT22;19361;51.598;7.650;2024-02-14T03:31:40;11.30;68.40
33007;DHT22;19361;51.598;7.650;2024-02-14T03:36:44;11.40;68.80
33007;DHT22;19361;51.598;7.650;2024-02-14T03:41:44;11.40;68.70
33007;DHT22;19361;51.598;7.650;2024-02-14T03:46:45;11.40;68.70
33007;DHT22;19361;51.598;7.650;2024-02-14T03:51:48;11.40;68.80
33007;DHT22;19361;51.598;7.650;2024-02-14T03:56:51;11.50;69.20
33007;DHT22;19361;51.598;7.650;2024-02-14T04:01:52;11.50;69.40
33007;DHT22;19361;51.598;7.650;2024-02-14T04:06:53;11.40;69.40
33007;DHT22;19361;51.598;7.650;2024-02-14T04:11:54;11.50;69.50
33007;DHT22;19361;51.598;7.650;2024-02-14T04:16:55;11.50;69.70
33007;DHT22;19361;51.598;7.650;2024-02-14T04:21:56;11.50;69.70
33007;DHT22;19361;51.598;7.650;2024-02-14T04:26:56;11.50;69.80
33007;DHT22;19361;51.598;7.650;2024-02-14T04:31:57;11.50;70.10
33007;DHT22;19361;51.598;7.650;2024-02-14T04:36:58;11.50;70.30
33007;DHT22;19361;51.598;7.650;2024-02-14T04:41:59;11.50;70.10
33007;DHT22;19361;51.598;7.650;2024-02-14T04:46:59;11.50;70.30
33007;DHT22;19361;51.598;7.650;2024-02-14T04:52:00;11.50;70.20
33007;DHT22;19361;51.598;7.650;2024-02-14T04:57:01;11.60;70.20
33007;DHT22;19361;51.598;7.650;2024-02-14T05:02:02;11.60;70.20
33007;DHT22;19361;51.598;7.650;2024-02-14T05:07:02;11.60;70.40
33007;DHT22;19361;51.598;7.650;2024-02-14T05:12:04;11.60;70.90
33007;DHT22;19361;51.598;7.650;2024-02-14T05:17:05;11.60;70.80
33007;DHT22;19361;51.598;7.650;2024-02-14T05:22:05;11.60;71.10
33007;DHT22;19361;51.598;7.650;2024-02-14T05:27:06;11.70;71.70
33007;DHT22;19361;51.598;7.650;2024-02-14T05:32:07;11.60;71.40
33007;DHT22;19361;51.598;7.650;2024-02-14T05:37:09;11.60;71.50
33007;DHT22;19361;51.598;7.650;2024-02-14T05:42:10;11.60;71.70
33007;DHT22;19361;51.598;7.650;2024-02-14T05:47:11;11.60;71.70
33007;DHT22;19361;51.598;7.650;2024-02-14T05:52:11;11.60;71.80
33007;DHT22;19361;51.598;7.650;2024-02-14T05:57:12;11.60;71.90
33007;DHT22;19361;51.598;7.650;2024-02-14T06:02:13;11.60;71.90
33007;DHT22;19361;51.598;7.650;2024-02-14T06:07:13;11.70;72.40
33007;DHT22;19361;51.598;7.650;2024-02-14T06:12:14;11.70;72.50
33007;DHT22;19361;51.598;7.650;2024-02-14T06:17:15;11.70;72.70
33007;DHT22;19361;51.598;7.650;2024-02-14T06:22:16;11.70;72.70
33007;DHT22;19361;51.598;7.650;2024-02-14T06:27:17;11.70;72.70
33007;DHT22;19361;51.598;7.650;2024-02-14T06:32:18;11.70;72.90
33007;DHT22;19361;51.598;7.650;2024-02-14T06:37:19;11.60;72.80
33007;DHT22;19361;51.598;7.650;2024-02-14T06:42:21;11.70;73.10
33007;DHT22;19361;51.598;7.650;2024-02-14T06:47:21;11.60;73.00
33007;DHT22;19361;51.598;7.650;2024-02-14T06:52:22;11.60;73.30
33007;DHT22;19361;51.598;7.650;2024-02-14T06:57:23;11.60;73.30
33007;DHT22;19361;51.598;7.650;2024-02-14T07:02:24;11.70;73.50
33007;DHT22;19361;51.598;7.650;2024-02-14T07:07:28;11.70;73.70
33007;DHT22;19361;51.598;7.650;2024-02-14T07:12:28;11.70;73.90
33007;DHT22;19361;51.598;7.650;2024-02-14T07:17:31;11.70;74.00
33007;DHT22;19361;51.598;7.650;2024-02-14T07:22:32;11.70;74.00
33007;DHT22;19361;51.598;7.650;2024-02-14T07:27:33;11.70;74.30
33007;DHT22;19361;51.598;7.650;2024-02-14T07:32:34;11.70;74.20
33007;DHT22;19361;51.598;7.650;2024-02-14T07:37:35;11.80;74.40
33007;DHT22;19361;51.598;7.650;2024-02-14T07:42:35;11.80;74.60
33007;DHT22;19361;51.598;7.650;2024-02-14T07:47:36;11.80;74.70
33007;DHT22;19361;51.598;7.650;2024-02-14T07:52:40;11.80;74.70
33007;DHT22;19361;51.598;7.650;2024-02-14T07:57:42;11.80;74.70
33007;DHT22;19361;51.598;7.650;2024-02-14T08:02:43;11.80;74.70
33007;DHT22;19361;51.598;7.650;2024-02-14T08:07:47;11.90;75.00
33007;DHT22;19361;51.598;7.650;2024-02-14T08:12:47;11.80;75.00
33007;DHT22;19361;51.598;7.650;2024-02-14T08:17:48;11.90;75.00
33007;DHT22;19361;51.598;7.650;2024-02-14T08:22:49;11.90;75.00
33007;DHT22;19361;51.598;7.650;2024-02-14T08:27:50;11.90;75.10
33007;DHT22;19361;51.598;7.650;2024-02-14T08:32:51;12.00;75.40
33007;DHT22;19361;51.598;7.650;2024-02-14T08:37:52;11.90;75.40
33007;DHT22;19361;51.598;7.650;2024-02-14T08:42:52;12.00;75.40
33007;DHT22;19361;51.598;7.650;2024-02-14T08:47:53;12.00;75.60
33007;DHT22;19361;51.598;7.650;2024-02-14T08:52:53;12.10;75.70
33007;DHT22;19361;51.598;7.650;2024-02-14T08:57:54;12.10;75.60
33007;DHT22;19361;51.598;7.650;2024-02-14T09:02:55;12.20;75.90
33007;DHT22;19361;51.598;7.650;2024-02-14T09:07:56;12.30;75.70
33007;DHT22;19361;51.598;7.650;2024-02-14T09:12:57;12.30;75.70
33007;DHT22;19361;51.598;7.650;2024-02-14T09:17:57;12.40;75.80
33007;DHT22;19361;51.598;7.650;2024-02-14T09:23:00;12.40;76.20
33007;DHT22;19361;51.598;7.650;2024-02-14T09:28:01;12.50;75.80
33007;DHT22;19361;51.598;7.650;2024-02-14T09:33:01;12.60;75.80
33007;DHT22;19361;51.598;7.650;2024-02-14T09:38:02;12.60;75.70
33007;DHT22;19361;51.598;7.650;2024-02-14T09:43:05;12.70;75.40
33007;DHT22;19361;51.598;7.650;2024-02-14T09:48:13;12.80;75.40
33007;DHT22;19361;51.598;7.650;2024-02-14T09:53:15;12.80;75.20
33007;DHT22;19361;51.598;7.650;2024-02-14T09:58:17;12.90;75.20
33007;DHT22;19361;51.598;7.650;2024-02-14T10:03:18;12.90;75.10
33007;DHT22;19361;51.598;7.650;2024-02-14T10:08:19;12.90;74.90
33007;DHT22;19361;51.598;7.650;2024-02-14T10:13:21;13.00;74.80
33007;DHT22;19361;51.598;7.650;2024-02-14T10:18:23;13.00;74.90
33007;DHT22;19361;51.598;7.650;2024-02-14T10:23:23;13.10;75.00
33007;DHT22;19361;51.598;7.650;2024-02-14T10:28:24;13.10;75.00
33007;DHT22;19361;51.598;7.650;2024-02-14T10:33:28;13.20;75.00
33007;DHT22;19361;51.598;7.650;2024-02-14T10:38:31;13.20;75.30
33007;DHT22;19361;51.598;7.650;2024-02-14T10:43:33;13.20;75.20
33007;DHT22;19361;51.598;7.650;2024-02-14T10:48:37;13.20;75.40
33007;DHT22;19361;51.598;7.650;2024-02-14T10:53:39;13.20;75.50
33007;DHT22;19361;51.598;7.650;2024-02-14T10:58:49;13.20;75.40
33007;DHT22;19361;51.598;7.650;2024-02-14T11:03:51;13.20;75.70
33007;DHT22;19361;51.598;7.650;2024-02-14T11:09:01;13.30;75.70
33007;DHT22;19361;51.598;7.650;2024-02-14T11:14:07;13.30;76.10
33007;DHT22;19361;51.598;7.650;2024-02-14T11:19:13;13.30;76.10
33007;DHT22;19361;51.598;7.650;2024-02-14T11:24:15;13.40;76.20
33007;DHT22;19361;51.598;7.650;2024-02-14T11:29:16;13.40;76.20
33007;DHT22;19361;51.598;7.650;2024-02-14T11:34:18;13.50;76.30
33007;DHT22;19361;51.598;7.650;2024-02-14T11:39:20;13.60;76.40
33007;DHT22;19361;51.598;7.650;2024-02-14T11:44:21;13.70;76.50
33007;DHT22;19361;51.598;7.650;2024-02-14T11:49:26;13.80;76.20
33007;DHT22;19361;51.598;7.650;2024-02-14T11:54:26;13.90;76.10
33007;DHT22;19361;51.598;7.650;2024-02-14T11:59:27;14.00;75.90
33007;DHT22;19361;51.598;7.650;2024-02-14T12:04:28;14.00;75.50
33007;DHT22;19361;51.598;7.650;2024-02-14T12:09:29;14.00;75.20
33007;DHT22;19361;51.598;7.650;2024-02-14T12:14:29;14.00;75.10
33007;DHT22;19361;51.598;7.650;2024-02-14T12:19:30;14.00;75.00
33007;DHT22;19361;51.598;7.650;2024-02-14T12:24:31;14.00;75.00
33007;DHT22;19361;51.598;7.650;2024-02-14T12:29:35;14.00;75.00
33007;DHT22;19361;51.598;7.650;2024-02-14T12:34:37;14.10;75.40
33007;DHT22;19361;51.598;7.650;2024-02-14T12:39:38;14.10;75.40
33007;DHT22;19361;51.598;7.650;2024-02-14T12:44:38;14.20;75.20
33007;DHT22;19361;51.598;7.650;2024-02-14T12:49:39;14.20;75.20
33007;DHT22;19361;51.598;7.650;2024-02-14T12:54:40;14.30;75.30
33007;DHT22;19361;51.598;7.650;2024-02-14T12:59:40;14.30;75.30
33007;DHT22;19361;51.598;7.650;2024-02-14T13:04:41;14.40;75.10
33007;DHT22;19361;51.598;7.650;2024-02-14T13:09:42;14.50;75.00
33007;DHT22;19361;51.598;7.650;2024-02-14T13:14:44;14.50;74.90
33007;DHT22;19361;51.598;7.650;2024-02-14T13:19:45;14.60;75.00
33007;DHT22;19361;51.598;7.650;2024-02-14T13:24:46;14.60;75.10
33007;DHT22;19361;51.598;7.650;2024-02-14T13:29:47;14.60;75.10
33007;DHT22;19361;51.598;7.650;2024-02-14T13:34:47;14.70;75.30
33007;DHT22;19361;51.598;7.650;2024-02-14T13:39:48;14.80;75.30
33007;DHT22;19361;51.598;7.650;2024-02-14T13:44:49;14.80;75.50
33007;DHT22;19361;51.598;7.650;2024-02-14T13:49:49;14.90;75.30
33007;DHT22;19361;51.598;7.650;2024-02-14T13:54:52;14.90;75.00
33007;DHT22;19361;51.598;7.650;2024-02-14T13:59:52;15.00;74.70
33007;DHT22;19361;51.598;7.650;2024-02-14T14:04:54;14.90;74.40
33007;DHT22;19361;51.598;7.650;2024-02-14T14:09:55;14.80;74.30
33007;DHT22;19361;51.598;7.650;2024-02-14T14:14:56;14.80;74.40
33007;DHT22;19361;51.598;7.650;2024-02-14T14:19:57;14.70;74.30
33007;DHT22;19361;51.598;7.650;2024-02-14T14:24:58;14.70;74.60
33007;DHT22;19361;51.598;7.650;2024-02-14T14:29:58;14.60;74.80
33007;DHT22;19361;51.598;7.650;2024-02-14T14:34:59;14.60;75.00
33007;DHT22;19361;51.598;7.650;2024-02-14T14:39:59;14.50;75.00
33007;DHT22;19361;51.598;7.650;2024-02-14T14:45:02;14.50;75.20
33007;DHT22;19361;51.598;7.650;2024-02-14T14:50:05;14.40;75.20
33007;DHT22;19361;51.598;7.650;2024-02-14T14:55:07;14.40;75.20
33007;DHT22;19361;51.598;7.650;2024-02-14T15:00:09;14.40;75.40
33007;DHT22;19361;51.598;7.650;2024-02-14T15:05:12;14.30;75.50
33007;DHT22;19361;51.598;7.650;2024-02-14T15:10:13;14.30;75.60
33007;DHT22;19361;51.598;7.650;2024-02-14T15:15:14;14.30;75.70
33007;DHT22;19361;51.598;7.650;2024-02-14T15:20:14;14.30;75.90
33007;DHT22;19361;51.598;7.650;2024-02-14T15:25:15;14.30;75.80
33007;DHT22;19361;51.598;7.650;2024-02-14T15:30:16;14.30;75.90
33007;DHT22;19361;51.598;7.650;2024-02-14T15:35:35;14.30;75.90
33007;DHT22;19361;51.598;7.650;2024-02-14T15:40:36;14.30;75.80
33007;DHT22;19361;51.598;7.650;2024-02-14T15:45:36;14.20;75.80
33007;DHT22;19361;51.598;7.650;2024-02-14T15:50:37;14.20;75.80
33007;DHT22;19361;51.598;7.650;2024-02-14T15:55:38;14.20;75.90
33007;DHT22;19361;51.598;7.650;2024-02-14T16:00:39;14.10;75.90
33007;DHT22;19361;51.598;7.650;2024-02-14T16:05:40;14.10;76.10
33007;DHT22;19361;51.598;7.650;2024-02-14T16:10:41;14.00;76.10
33007;DHT22;19361;51.598;7.650;2024-02-14T16:15:44;14.00;76.20
33007;DHT22;19361;51.598;7.650;2024-02-14T16:20:45;14.00;76.20
33007;DHT22;19361;51.598;7.650;2024-02-14T16:25:46;14.00;76.20
33007;DHT22;19361;51.598;7.650;2024-02-14T16:30:48;14.00;76.40
33007;DHT22;19361;51.598;7.650;2024-02-14T16:35:48;14.00;76.60
33007;DHT22;19361;51.598;7.650;2024-02-14T16:40:49;13.90;76.60
33007;DHT22;19361;51.598;7.650;2024-02-14T16:45:49;13.90;76.90
33007;DHT22;19361;51.598;7.650;2024-02-14T16:50:50;13.90;77.10
33007;DHT22;19361;51.598;7.650;2024-02-14T16:55:52;13.90;77.10
33007;DHT22;19361;51.598;7.650;2024-02-14T17:00:53;13.90;77.20
33007;DHT22;19361;51.598;7.650;2024-02-14T17:05:53;13.90;77.20
33007;DHT22;19361;51.598;7.650;2024-02-14T17:10:55;13.90;77.30
33007;DHT22;19361;51.598;7.650;2024-02-14T17:15:56;13.90;77.30
33007;DHT22;19361;51.598;7.650;2024-02-14T17:20:57;13.90;77.40
33007;DHT22;19361;51.598;7.650;2024-02-14T17:25:58;13.90;77.40
33007;DHT22;19361;51.598;7.650;2024-02-14T17:31:00;13.90;77.40
33007;DHT22;19361;51.598;7.650;2024-02-14T17:36:01;13.90;77.50
33007;DHT22;19361;51.598;7.650;2024-02-14T17:41:04;13.90;77.50
33007;DHT22;19361;51.598;7.650;2024-02-14T17:46:07;13.90;77.60
33007;DHT22;19361;51.598;7.650;2024-02-14T17:51:07;13.90;77.70
33007;DHT22;19361;51.598;7.650;2024-02-14T17:56:08;13.90;77.70
33007;DHT22;19361;51.598;7.650;2024-02-14T18:01:09;13.90;77.70
33007;DHT22;19361;51.598;7.650;2024-02-14T18:06:10;13.90;77.90
33007;DHT22;19361;51.598;7.650;2024-02-14T18:11:10;13.90;77.90
33007;DHT22;19361;51.598;7.650;2024-02-14T18:16:12;13.90;77.90
33007;DHT22;19361;51.598;7.650;2024-02-14T18:21:14;13.90;78.10
33007;DHT22;19361;51.598;7.650;2024-02-14T18:26:15;14.00;78.20
33007;DHT22;19361;51.598;7.650;2024-02-14T18:31:15;14.00;78.30
33007;DHT22;19361;51.598;7.650;2024-02-14T18:36:16;14.00;78.40
33007;DHT22;19361;51.598;7.650;2024-02-14T18:41:18;14.00;78.40
33007;DHT22;19361;51.598;7.650;2024-02-14T18:46:19;14.00;78.40
33007;DHT22;19361;51.598;7.650;2024-02-14T18:51:19;14.00;78.30
33007;DHT22;19361;51.598;7.650;2024-02-14T18:56:21;14.00;78.40
33007;DHT22;19361;51.598;7.650;2024-02-14T19:01:22;14.10;78.40
33007;DHT22;19361;51.598;7.650;2024-02-14T19:06:25;14.10;78.50
33007;DHT22;19361;51.598;7.650;2024-02-14T19:11:26;14.10;78.90
33007;DHT22;19361;51.598;7.650;2024-02-14T19:16:27;14.10;78.50
33007;DHT22;19361;51.598;7.650;2024-02-14T19:21:29;14.20;78.70
33007;DHT22;19361;51.598;7.650;2024-02-14T19:26:31;14.20;78.70
33007;DHT22;19361;51.598;7.650;2024-02-14T19:31:32;14.20;79.00
33007;DHT22;19361;51.598;7.650;2024-02-14T19:36:33;14.20;79.00
33007;DHT22;19361;51.598;7.650;2024-02-14T19:41:36;14.30;79.00
33007;DHT22;19361;51.598;7.650;2024-02-14T19:46:36;14.30;79.00
33007;DHT22;19361;51.598;7.650;2024-02-14T19:51:37;14.30;78.90
33007;DHT22;19361;51.598;7.650;2024-02-14T19:56:38;14.30;78.90
33007;DHT22;19361;51.598;7.650;2024-02-14T20:01:38;14.30;78.80
33007;DHT22;19361;51.598;7.650;2024-02-14T20:06:39;14.30;78.80
33007;DHT22;19361;51.598;7.650;2024-02-14T20:11:40;14.30;78.90
33007;DHT22;19361;51.598;7.650;2024-02-14T20:16:41;14.30;78.90
33007;DHT22;19361;51.598;7.650;2024-02-14T20:21:41;14.30;79.10
33007;DHT22;19361;51.598;7.650;2024-02-14T20:26:42;14.40;78.90
33007;DHT22;19361;51.598;7.650;2024-02-14T20:31:43;14.40;78.90
33007;DHT22;19361;51.598;7.650;2024-02-14T20:36:43;14.40;78.90
33007;DHT22;19361;51.598;7.650;2024-02-14T20:41:45;14.40;79.00
33007;DHT22;19361;51.598;7.650;2024-02-14T20:46:45;14.40;78.80
33007;DHT22;19361;51.598;7.650;2024-02-14T20:51:51;14.40;78.80
33007;DHT22;19361;51.598;7.650;2024-02-14T20:56:52;14.40;78.80
33007;DHT22;19361;51.598;7.650;2024-02-14T21:01:52;14.50;78.80
33007;DHT22;19361;51.598;7.650;2024-02-14T21:06:53;14.40;78.80
33007;DHT22;19361;51.598;7.650;2024-02-14T21:11:55;14.50;79.30
33007;DHT22;19361;51.598;7.650;2024-02-14T21:16:56;14.50;78.80
33007;DHT22;19361;51.598;7.650;2024-02-14T21:21:56;14.50;78.70
33007;DHT22;19361;51.598;7.650;2024-02-14T21:26:57;14.50;78.70
33007;DHT22;19361;51.598;7.650;2024-02-14T21:31:58;14.50;78.60
33007;DHT22;19361;51.598;7.650;2024-02-14T21:36:59;14.50;78.80
33007;DHT22;19361;51.598;7.650;2024-02-14T21:42:00;14.50;78.80
33007;DHT22;19361;51.598;7.650;2024-02-14T21:47:01;14.50;78.70
33007;DHT22;19361;51.598;7.650;2024-02-14T21:52:02;14.60;78.80
33007;DHT22;19361;51.598;7.650;2024-02-14T21:57:07;14.50;78.80
33007;DHT22;19361;51.598;7.650;2024-02-14T22:02:08;14.50;78.80
33007;DHT22;19361;51.598;7.650;2024-02-14T22:07:08;14.50;78.90
33007;DHT22;19361;51.598;7.650;2024-02-14T22:12:09;14.50;78.90
33007;DHT22;19361;51.598;7.650;2024-02-14T22:17:10;14.50;79.00
33007;DHT22;19361;51.598;7.650;2024-02-14T22:22:14;14.50;79.10
33007;DHT22;19361;51.598;7.650;2024-02-14T22:27:18;14.40;79.10
33007;DHT22;19361;51.598;7.650;2024-02-14T22:32:19;14.40;79.10
33007;DHT22;19361;51.598;7.650;2024-02-14T22:37:19;14.40;79.20
33007;DHT22;19361;51.598;7.650;2024-02-14T22:42:20;14.40;79.20
33007;DHT22;19361;51.598;7.650;2024-02-14T22:47:21;14.40;79.30
33007;DHT22;19361;51.598;7.650;2024-02-14T22:52:22;14.40;79.50
33007;DHT22;19361;51.598;7.650;2024-02-14T22:57:23;14.40;79.50
33007;DHT22;19361;51.598;7.650;2024-02-14T23:02:24;14.40;79.50
33007;DHT22;19361;51.598;7.650;2024-02-14T23:07:25;14.40;79.50
33007;DHT22;19361;51.598;7.650;2024-02-14T23:12:26;14.40;79.50
33007;DHT22;19361;51.598;7.650;2024-02-14T23:17:29;14.40;79.60
33007;DHT22;19361;51.598;7.650;2024-02-14T23:22:31;14.40;79.60
33007;DHT22;19361;51.598;7.650;2024-02-14T23:27:32;14.40;79.60
33007;DHT22;19361;51.598;7.650;2024-02-14T23:32:35;14.40;79.60
33007;DHT22;19361;51.598;7.650;2024-02-14T23:37:40;14.50;79.60
33007;DHT22;19361;51.598;7.650;2024-02-14T23:42:41;14.50;79.60
33007;DHT22;19361;51.598;7.650;2024-02-14T23:47:45;14.50;79.60
33007;DHT22;19361;51.598;7.650;2024-02-14T23:52:46;14.50;80.00
33007;DHT22;19361;51.598;7.650;2024-02-14T23:57:47;14.50;79.90
